createdAt,value
2023-03-22T00:02:39.747Z,86.64
2023-03-22T00:05:23.880Z,86.15
2023-03-22T00:08:08.577Z,85.87
2023-03-22T00:10:54.003Z,85.92
2023-03-22T00:13:38.591Z,86.68
2023-03-22T00:16:23.359Z,85.99
2023-03-22T00:19:07.320Z,86.52
2023-03-22T00:21:51.756Z,86.35
2023-03-22T00:24:36.178Z,85.99
2023-03-22T00:27:21.681Z,86.46
2023-03-22T00:30:06.886Z,86.18
2023-03-22T00:32:50.814Z,85.93
2023-03-22T00:35:35.016Z,85.61
2023-03-22T00:38:19.729Z,85.31
2023-03-22T00:41:09.693Z,85.14
2023-03-22T00:43:55.487Z,84.97
2023-03-22T00:46:40.459Z,84.62
2023-03-22T00:49:25.643Z,85.30
2023-03-22T00:52:09.671Z,85.87
2023-03-22T00:54:54.404Z,86.62
2023-03-22T00:57:38.381Z,87.00
2023-03-22T01:00:24.455Z,87.06
2023-03-22T01:03:08.803Z,86.57
2023-03-22T01:05:55.625Z,87.25
2023-03-22T01:08:39.696Z,86.64
2023-03-22T01:11:23.782Z,86.90
2023-03-22T01:14:09.852Z,87.98
2023-03-22T01:16:57.665Z,87.39
2023-03-22T01:19:41.786Z,87.10
2023-03-22T01:22:25.685Z,86.90
2023-03-22T01:25:11.656Z,87.90
2023-03-22T01:27:55.502Z,87.42
2023-03-22T01:30:41.150Z,87.17
2023-03-22T01:33:27.066Z,88.01
2023-03-22T01:36:11.997Z,88.28
2023-03-22T01:38:56.037Z,89.97
2023-03-22T01:41:40.725Z,89.81
2023-03-22T01:44:32.165Z,88.31
2023-03-22T01:47:18.316Z,87.62
2023-03-22T01:50:04.290Z,89.17
2023-03-22T01:52:49.711Z,88.58
2023-03-22T01:55:39.818Z,87.73
2023-03-22T01:58:40.895Z,86.51
2023-03-22T02:01:27.385Z,87.28
2023-03-22T02:04:14.057Z,86.13
2023-03-22T02:07:00.479Z,86.61
2023-03-22T02:09:47.588Z,86.39
2023-03-22T02:12:42.127Z,88.00
2023-03-22T02:15:47.136Z,90.56
2023-03-22T02:19:20.887Z,93.07
2023-03-22T02:22:40.490Z,92.69
2023-03-22T02:26:05.681Z,92.44
2023-03-22T02:28:53.880Z,92.30
2023-03-22T02:31:51.843Z,92.00
2023-03-22T02:35:14.622Z,93.26
2023-03-22T02:38:38.005Z,92.16
2023-03-22T02:41:33.523Z,92.61
2023-03-22T02:44:26.702Z,92.89
2023-03-22T02:47:21.552Z,92.10
2023-03-22T02:50:11.455Z,91.87
2023-03-22T02:53:01.948Z,91.90
2023-03-22T02:55:49.558Z,92.73
2023-03-22T02:58:38.316Z,93.07
2023-03-22T03:01:26.177Z,92.34
2023-03-22T03:04:15.541Z,91.97
2023-03-22T03:07:03.972Z,92.36
2023-03-22T03:09:50.877Z,92.63
2023-03-22T03:12:34.839Z,92.97
2023-03-22T03:15:23.816Z,92.38
2023-03-22T03:18:26.817Z,93.08
2023-03-22T03:21:21.495Z,92.66
2023-03-22T03:24:22.124Z,92.70
2023-03-22T03:27:14.356Z,92.23
2023-03-22T03:30:04.341Z,93.50
2023-03-22T03:32:55.381Z,93.42
2023-03-22T03:35:42.536Z,93.33
2023-03-22T03:38:32.827Z,93.79
2023-03-22T03:41:19.907Z,94.37
2023-03-22T03:44:08.100Z,93.67
2023-03-22T03:46:56.434Z,92.79
2023-03-22T03:49:42.227Z,93.66
2023-03-22T03:52:27.249Z,94.41
2023-03-22T03:55:11.606Z,94.53
2023-03-22T03:57:56.020Z,94.47
2023-03-22T04:00:40.304Z,93.67
2023-03-22T04:03:43.847Z,93.51
2023-03-22T04:06:47.725Z,93.34
2023-03-22T04:09:37.426Z,93.77
2023-03-22T04:12:47.531Z,93.51
2023-03-22T04:15:34.417Z,93.14
2023-03-22T04:18:22.338Z,93.93
2023-03-22T04:21:06.909Z,94.23
2023-03-22T04:24:02.204Z,93.41
2023-03-22T04:26:52.527Z,93.15
2023-03-22T04:29:55.995Z,93.82
2023-03-22T04:33:07.169Z,92.92
2023-03-22T04:36:16.138Z,93.03
2023-03-22T04:39:28.276Z,92.61
2023-03-22T04:42:48.077Z,92.79
2023-03-22T04:45:42.239Z,92.03
2023-03-22T04:48:28.257Z,92.05
2023-03-22T04:51:13.522Z,92.07
2023-03-22T04:54:07.297Z,92.25
2023-03-22T04:56:53.118Z,92.68
2023-03-22T04:59:39.732Z,93.34
2023-03-22T05:02:23.805Z,93.98
2023-03-22T05:05:08.784Z,93.50
2023-03-22T05:07:57.121Z,92.46
2023-03-22T05:10:42.327Z,91.89
2023-03-22T05:13:28.937Z,90.83
2023-03-22T05:16:13.480Z,90.67
2023-03-22T05:19:13.866Z,90.92
2023-03-22T05:22:02.253Z,91.68
2023-03-22T05:25:03.003Z,94.17
2023-03-22T05:27:50.325Z,93.89
2023-03-22T05:31:00.428Z,97.10
2023-03-22T05:33:53.277Z,98.18
2023-03-22T05:36:40.039Z,98.56
2023-03-22T05:39:42.337Z,99.54
2023-03-22T05:42:26.426Z,98.50
2023-03-22T05:45:12.044Z,97.54
2023-03-22T05:47:58.734Z,95.57
2023-03-22T05:50:44.606Z,95.75
2023-03-22T05:53:28.942Z,93.74
2023-03-22T05:56:17.538Z,93.40
2023-03-22T05:59:04.466Z,94.04
2023-03-22T06:01:49.750Z,96.35
2023-03-22T06:04:41.789Z,96.95
2023-03-22T06:07:30.591Z,97.78
2023-03-22T06:10:26.960Z,98.47
2023-03-22T06:13:11.226Z,100.00
2023-03-22T06:15:55.594Z,99.36
2023-03-22T06:18:42.504Z,97.95
2023-03-22T06:21:30.518Z,98.02
2023-03-22T06:24:14.539Z,100.00
2023-03-22T06:26:58.627Z,100.00
2023-03-22T06:29:43.073Z,99.54
2023-03-22T06:32:27.322Z,100.00
2023-03-22T06:35:12.898Z,100.00
2023-03-22T06:37:58.509Z,100.00
2023-03-22T06:40:43.064Z,100.00
2023-03-22T06:43:27.103Z,100.00
2023-03-22T06:46:18.510Z,100.00
2023-03-22T06:49:11.941Z,100.00
2023-03-22T06:51:56.084Z,100.00
2023-03-22T06:54:41.995Z,98.58
2023-03-22T06:57:27.299Z,96.18
2023-03-22T07:00:12.932Z,99.10
2023-03-22T07:02:57.074Z,100.00
2023-03-22T07:05:48.481Z,100.00
2023-03-22T07:08:32.612Z,100.00
2023-03-22T07:11:18.141Z,100.00
2023-03-22T07:14:09.782Z,100.00
2023-03-22T07:17:19.764Z,99.40
2023-03-22T07:20:04.967Z,99.36
2023-03-22T07:22:52.837Z,97.20
2023-03-22T07:25:39.232Z,95.61
2023-03-22T07:28:50.977Z,94.94
2023-03-22T07:31:38.138Z,93.69
2023-03-22T07:34:26.535Z,91.24
2023-03-22T07:37:22.709Z,90.29
2023-03-22T07:40:07.983Z,88.12
2023-03-22T07:42:55.771Z,88.77
2023-03-22T07:46:07.065Z,87.30
2023-03-22T07:49:07.750Z,85.30
2023-03-22T07:52:11.796Z,87.08
2023-03-22T07:54:55.842Z,87.54
2023-03-22T07:57:40.932Z,86.17
2023-03-22T08:00:27.184Z,86.92
2023-03-22T08:03:35.417Z,85.30
2023-03-22T08:06:32.868Z,82.38
2023-03-22T08:09:17.692Z,84.95
2023-03-22T08:12:01.717Z,81.88
2023-03-22T08:14:50.594Z,84.72
2023-03-22T08:17:39.045Z,86.26
2023-03-22T08:20:29.323Z,88.24
2023-03-22T08:23:17.817Z,90.21
2023-03-22T08:26:13.453Z,90.35
2023-03-22T08:28:57.815Z,88.90
2023-03-22T08:31:41.908Z,88.15
2023-03-22T08:34:27.601Z,88.63
2023-03-22T08:37:13.923Z,90.43
2023-03-22T08:40:01.199Z,91.76
2023-03-22T08:42:55.872Z,90.43
2023-03-22T08:45:40.305Z,89.89
2023-03-22T08:48:32.511Z,91.73
2023-03-22T08:51:26.080Z,90.26
2023-03-22T08:54:21.561Z,88.29
2023-03-22T08:57:22.200Z,90.46
2023-03-22T09:00:32.010Z,92.87
2023-03-22T09:03:42.522Z,93.29
2023-03-22T09:06:27.520Z,94.56
2023-03-22T09:09:11.746Z,93.25
2023-03-22T09:11:58.344Z,91.92
2023-03-22T09:14:42.279Z,93.84
2023-03-22T09:17:26.692Z,93.50
2023-03-22T09:20:13.119Z,92.69
2023-03-22T09:23:00.030Z,92.70
2023-03-22T09:25:45.784Z,93.05
2023-03-22T09:28:32.546Z,93.87
2023-03-22T09:31:20.800Z,94.97
2023-03-22T09:34:12.393Z,95.70
2023-03-22T09:36:58.721Z,96.16
2023-03-22T09:39:47.560Z,95.55
2023-03-22T09:42:38.788Z,94.02
2023-03-22T09:45:38.379Z,94.46
2023-03-22T09:48:28.805Z,95.83
2023-03-22T09:51:25.172Z,95.05
2023-03-22T09:54:16.017Z,96.52
2023-03-22T09:57:03.612Z,95.57
2023-03-22T09:59:57.170Z,95.39
2023-03-22T10:02:52.379Z,95.83
2023-03-22T10:05:42.730Z,94.66
2023-03-22T10:08:51.539Z,94.36
2023-03-22T10:11:45.823Z,94.37
2023-03-22T10:14:36.914Z,94.23
2023-03-22T10:17:27.340Z,93.26
2023-03-22T10:20:25.070Z,93.82
2023-03-22T10:23:15.967Z,94.62
2023-03-22T10:26:03.853Z,94.37
2023-03-22T10:28:54.462Z,94.42
2023-03-22T10:31:41.118Z,93.87
2023-03-22T10:34:31.176Z,93.28
2023-03-22T10:37:19.586Z,92.89
2023-03-22T10:40:07.950Z,92.15
2023-03-22T10:42:56.820Z,91.97
2023-03-22T10:45:41.580Z,92.17
2023-03-22T10:48:30.323Z,94.04
2023-03-22T10:51:22.545Z,92.77
2023-03-22T10:54:14.787Z,92.83
2023-03-22T10:56:58.726Z,90.22
2023-03-22T10:59:48.666Z,90.86
2023-03-22T11:02:34.050Z,88.78
2023-03-22T11:05:24.378Z,88.58
2023-03-22T11:08:08.324Z,89.13
2023-03-22T11:10:55.433Z,88.92
2023-03-22T11:13:39.783Z,88.73
2023-03-22T11:16:25.032Z,88.33
2023-03-22T11:19:16.466Z,88.27
2023-03-22T11:22:01.407Z,88.56
2023-03-22T11:24:48.814Z,87.80
2023-03-22T11:27:36.614Z,89.99
2023-03-22T11:30:23.913Z,87.76
2023-03-22T11:33:18.925Z,85.99
2023-03-22T11:36:04.964Z,84.75
2023-03-22T11:38:49.087Z,85.82
2023-03-22T11:41:37.242Z,85.17
2023-03-22T11:44:24.329Z,84.95
2023-03-22T11:47:11.767Z,84.67
2023-03-22T11:49:57.322Z,83.96
2023-03-22T11:52:41.494Z,84.11
2023-03-22T11:55:26.548Z,84.18
2023-03-22T11:58:26.289Z,83.73
2023-03-22T12:01:17.623Z,84.41
2023-03-22T12:04:06.563Z,85.45
2023-03-22T12:06:54.056Z,84.46
2023-03-22T12:09:42.804Z,83.17
2023-03-22T12:12:31.476Z,84.03
2023-03-22T12:15:21.242Z,83.83
2023-03-22T12:18:10.241Z,85.57
2023-03-22T12:20:57.673Z,85.02
2023-03-22T12:23:41.897Z,84.00
2023-03-22T12:26:29.405Z,85.02
2023-03-22T12:29:18.331Z,83.91
2023-03-22T12:32:07.202Z,85.50
2023-03-22T12:35:01.325Z,86.15
2023-03-22T12:37:57.032Z,87.06
2023-03-22T12:40:42.951Z,87.85
2023-03-22T12:43:43.650Z,87.98
2023-03-22T12:46:30.848Z,88.50
2023-03-22T12:49:23.444Z,87.92
2023-03-22T12:52:16.415Z,88.51
2023-03-22T12:55:02.029Z,88.10
2023-03-22T12:57:51.380Z,87.62
2023-03-22T13:00:42.268Z,86.34
2023-03-22T13:03:29.883Z,85.69
2023-03-22T13:06:33.793Z,85.44
2023-03-22T13:09:21.093Z,84.87
2023-03-22T13:12:30.439Z,85.62
2023-03-22T13:15:42.486Z,85.08
2023-03-22T13:18:42.562Z,82.87
2023-03-22T13:21:29.533Z,83.83
2023-03-22T13:24:25.362Z,83.74
2023-03-22T13:27:12.153Z,83.90
2023-03-22T13:29:58.062Z,83.73
2023-03-22T13:32:52.561Z,82.71
2023-03-22T13:35:44.920Z,83.38
2023-03-22T13:38:32.079Z,83.01
2023-03-22T13:41:24.027Z,82.68
2023-03-22T13:44:26.095Z,82.67
2023-03-22T13:47:30.080Z,83.52
2023-03-22T13:50:19.995Z,83.65
2023-03-22T13:53:07.048Z,82.53
2023-03-22T13:56:03.544Z,82.75
2023-03-22T13:58:54.723Z,83.93
2023-03-22T14:01:47.741Z,82.75
2023-03-22T14:04:38.449Z,82.69
2023-03-22T14:07:26.918Z,82.46
2023-03-22T14:10:17.741Z,82.77
2023-03-22T14:13:07.224Z,82.13
2023-03-22T14:15:55.313Z,81.07
2023-03-22T14:18:44.562Z,81.63
2023-03-22T14:21:35.873Z,80.31
